Time;durP1;ratioP1;P1;durP2;ratioP2;P2;SDS_P1;SDS_P2;PMS_P1;PMS_P2;Temp;Humidity;BMP_temperature;BMP_pressure;BME280_temperature;BME280_humidity;BME280_pressure;Samples;Min_cycle;Max_cycle;Signal;HPM_P1;HPM_P2
2021/08/13 00:01:32;;;;;;;6.57;5.20;;;17.90;99.90;;;;;;6243811;28;20219;-73
2021/08/13 00:04:35;;;;;;;5.83;5.23;;;17.80;99.90;;;;;;6244692;28;20192;-73
2021/08/13 00:07:37;;;;;;;6.23;5.00;;;17.80;99.90;;;;;;6260183;28;20184;-72
2021/08/13 00:10:39;;;;;;;6.53;4.90;;;17.70;99.90;;;;;;6245776;28;20192;-73
2021/08/13 00:13:42;;;;;;;6.83;4.97;;;17.70;99.90;;;;;;6244757;28;20218;-73
2021/08/13 00:16:44;;;;;;;10.87;5.20;;;17.70;99.90;;;;;;6246418;28;20227;-73
2021/08/13 00:19:48;;;;;;;9.17;5.47;;;17.60;99.90;;;;;;6248044;28;20200;-73
2021/08/13 00:22:51;;;;;;;6.67;5.23;;;17.50;99.90;;;;;;6249731;28;20220;-73
2021/08/13 00:25:54;;;;;;;6.20;4.87;;;17.50;99.90;;;;;;6247721;28;20219;-73
2021/08/13 00:28:56;;;;;;;7.10;4.80;;;17.50;99.90;;;;;;6248921;28;20192;-73
2021/08/13 00:31:58;;;;;;;5.73;5.03;;;17.50;99.90;;;;;;6247802;28;20192;-73
2021/08/13 00:35:01;;;;;;;10.07;5.23;;;17.40;99.90;;;;;;6264014;28;20644;-73
2021/08/13 00:38:04;;;;;;;7.50;5.07;;;17.40;99.90;;;;;;6264137;28;20203;-73
2021/08/13 00:41:06;;;;;;;7.50;5.20;;;17.40;99.90;;;;;;6246951;28;20220;-72
2021/08/13 00:44:09;;;;;;;8.13;5.63;;;17.30;99.90;;;;;;6264336;28;20192;-73
2021/08/13 00:47:12;;;;;;;5.77;4.77;;;17.30;99.90;;;;;;6247520;28;20207;-73
2021/08/13 00:50:41;;;;;;;6.40;5.37;;;17.30;99.90;;;;;;6224567;28;20212;-73
2021/08/13 00:53:45;;;;;;;6.90;5.30;;;17.20;99.90;;;;;;6246260;28;20249;-73
2021/08/13 00:56:50;;;;;;;9.27;5.50;;;17.20;99.90;;;;;;6247413;28;20188;-73
2021/08/13 01:00:07;;;;;;;5.93;5.33;;;17.10;99.90;;;;;;6248092;28;20672;-72
2021/08/13 01:03:14;;;;;;;6.37;4.57;;;17.10;99.90;;;;;;6246954;28;20196;-73
2021/08/13 01:06:23;;;;;;;7.37;5.23;;;17.10;99.90;;;;;;6247207;28;20199;-73
2021/08/13 01:09:27;;;;;;;7.43;4.60;;;17.10;99.90;;;;;;6247487;28;20196;-72
2021/08/13 01:12:57;;;;;;;8.87;5.13;;;17.10;99.90;;;;;;6246939;28;20196;-73
2021/08/13 01:16:04;;;;;;;5.83;4.80;;;17.20;99.90;;;;;;6248496;28;20216;-72
2021/08/13 01:19:17;;;;;;;4.80;4.37;;;17.10;99.90;;;;;;6246749;28;20550;-72
2021/08/13 01:22:27;;;;;;;5.23;4.60;;;17.10;99.90;;;;;;6246954;28;20556;-72
2021/08/13 01:25:39;;;;;;;6.13;4.80;;;17.10;99.90;;;;;;6247584;28;20180;-72
2021/08/13 01:29:03;;;;;;;6.73;4.87;;;17.10;99.90;;;;;;6246180;28;20189;-73
2021/08/13 01:32:12;;;;;;;7.13;5.13;;;17.10;99.90;;;;;;6246606;28;20286;-73
2021/08/13 01:35:25;;;;;;;5.80;4.63;;;17.10;99.90;;;;;;6246229;28;20228;-72
2021/08/13 01:38:29;;;;;;;8.23;5.00;;;17.10;99.90;;;;;;6262722;28;20283;-72
2021/08/13 01:41:39;;;;;;;7.90;4.90;;;17.10;99.90;;;;;;6245903;28;20286;-73
2021/08/13 01:44:45;;;;;;;7.63;4.93;;;17.00;99.90;;;;;;6246241;28;20577;-72
2021/08/13 01:47:52;;;;;;;6.53;4.70;;;17.00;99.90;;;;;;6262044;28;20649;-73
2021/08/13 01:50:57;;;;;;;6.70;4.40;;;17.00;99.90;;;;;;6246022;28;20200;-73
2021/08/13 01:54:03;;;;;;;5.70;4.63;;;17.00;99.90;;;;;;6246061;28;20208;-73
2021/08/13 01:57:08;;;;;;;6.37;5.27;;;17.00;99.90;;;;;;6246012;28;20184;-73
2021/08/13 02:00:14;;;;;;;5.30;4.70;;;16.90;99.90;;;;;;6246101;28;20195;-73
2021/08/13 02:03:16;;;;;;;5.87;4.43;;;16.90;99.90;;;;;;6246990;28;20303;-74
2021/08/13 02:06:20;;;;;;;6.00;4.87;;;16.90;99.90;;;;;;6245627;28;20575;-73
2021/08/13 02:09:28;;;;;;;5.37;4.87;;;16.80;99.90;;;;;;6246973;28;20211;-73
2021/08/13 02:12:30;;;;;;;5.23;4.70;;;16.90;99.90;;;;;;6245186;28;20203;-73
2021/08/13 02:15:35;;;;;;;4.77;4.37;;;16.80;99.90;;;;;;6246778;28;20195;-73
2021/08/13 02:18:49;;;;;;;6.20;4.63;;;16.90;99.90;;;;;;6245059;28;20330;-74
2021/08/13 02:21:52;;;;;;;6.83;4.40;;;16.80;99.90;;;;;;6245390;28;20346;-73
2021/08/13 02:24:55;;;;;;;4.97;4.40;;;16.80;99.90;;;;;;6261511;28;20280;-72
2021/08/13 02:27:59;;;;;;;5.07;4.43;;;16.80;99.90;;;;;;6245200;28;20790;-73
2021/08/13 02:31:04;;;;;;;5.43;4.20;;;16.70;99.90;;;;;;6245106;28;20196;-74
2021/08/13 02:34:10;;;;;;;7.07;4.87;;;16.70;99.90;;;;;;6244789;28;20192;-72
2021/08/13 02:37:43;;;;;;;6.30;4.67;;;16.70;99.90;;;;;;6246207;28;20210;-72
2021/08/13 02:41:05;;;;;;;9.13;4.90;;;16.60;99.90;;;;;;6244878;28;20219;-73
2021/08/13 02:44:12;;;;;;;6.07;4.77;;;16.60;99.90;;;;;;6244905;28;20200;-72
2021/08/13 02:47:16;;;;;;;5.37;4.40;;;16.60;99.90;;;;;;6244270;28;20203;-73
2021/08/13 02:50:21;;;;;;;5.07;4.57;;;16.50;99.90;;;;;;6228494;28;20656;-72
2021/08/13 02:53:26;;;;;;;4.87;4.37;;;16.50;99.90;;;;;;6244767;28;20207;-73
2021/08/13 02:56:40;;;;;;;6.30;4.47;;;16.50;99.90;;;;;;6245428;28;20559;-72
2021/08/13 02:59:52;;;;;;;5.13;4.50;;;16.40;99.90;;;;;;6244438;28;20200;-72
2021/08/13 03:02:56;;;;;;;4.60;4.20;;;16.40;99.90;;;;;;6245157;28;20677;-72
2021/08/13 03:06:03;;;;;;;4.93;4.47;;;16.30;99.90;;;;;;6245389;28;20593;-73
2021/08/13 03:09:08;;;;;;;5.77;4.50;;;16.30;99.90;;;;;;6244067;28;20188;-72
2021/08/13 03:12:10;;;;;;;5.50;4.70;;;16.30;99.90;;;;;;6245578;28;20194;-72
2021/08/13 03:15:14;;;;;;;5.07;4.57;;;16.30;99.90;;;;;;6244271;28;20208;-73
2021/08/13 03:18:16;;;;;;;6.90;4.80;;;16.20;99.90;;;;;;6259937;28;20814;-74
2021/08/13 03:21:20;;;;;;;6.27;4.97;;;16.20;99.90;;;;;;6243871;28;20262;-73
2021/08/13 03:24:23;;;;;;;7.20;4.50;;;16.10;99.90;;;;;;6243656;28;20204;-73
2021/08/13 03:27:27;;;;;;;8.70;4.90;;;16.10;99.90;;;;;;6243912;28;20257;-72
2021/08/13 03:30:40;;;;;;;5.67;4.20;;;16.10;99.90;;;;;;6244000;28;20192;-72
2021/08/13 03:33:46;;;;;;;5.27;4.63;;;16.10;99.90;;;;;;6260058;28;20189;-73
2021/08/13 03:36:48;;;;;;;8.77;4.80;;;16.10;99.90;;;;;;6260275;28;20580;-72
2021/08/13 03:39:55;;;;;;;5.17;4.33;;;16.10;99.90;;;;;;6244923;28;20187;-72
2021/08/13 03:42:58;;;;;;;7.40;4.70;;;16.10;99.90;;;;;;6243934;28;20218;-72
2021/08/13 03:46:00;;;;;;;7.80;4.97;;;16.10;99.90;;;;;;6243513;28;20200;-73
2021/08/13 03:49:03;;;;;;;5.70;4.50;;;16.00;99.90;;;;;;6227519;28;20674;-73
2021/08/13 03:52:07;;;;;;;5.67;4.20;;;16.00;99.90;;;;;;6247928;28;20192;-72
2021/08/13 03:55:15;;;;;;;4.73;4.23;;;16.00;99.90;;;;;;6264999;28;20203;-73
2021/08/13 03:58:18;;;;;;;6.90;4.70;;;16.00;99.90;;;;;;6265149;28;20200;-72
2021/08/13 04:01:20;;;;;;;5.53;4.23;;;16.00;99.90;;;;;;6249406;28;20239;-72
2021/08/13 04:04:23;;;;;;;5.30;4.77;;;16.10;99.90;;;;;;6248271;28;20577;-73
2021/08/13 04:07:26;;;;;;;5.80;4.10;;;16.00;99.90;;;;;;6248258;28;20242;-72
2021/08/13 04:10:28;;;;;;;4.87;4.30;;;16.00;99.90;;;;;;6247922;28;20203;-72
2021/08/13 04:13:33;;;;;;;4.80;4.30;;;16.00;99.90;;;;;;6249841;28;20233;-72
2021/08/13 04:16:38;;;;;;;5.63;4.70;;;15.90;99.90;;;;;;6247909;28;20239;-73
2021/08/13 04:19:41;;;;;;;7.50;4.53;;;15.90;99.90;;;;;;6248057;28;20226;-72
2021/08/13 04:22:44;;;;;;;5.73;4.77;;;15.90;99.90;;;;;;6264394;28;20215;-72
2021/08/13 04:25:48;;;;;;;7.57;4.80;;;15.90;99.90;;;;;;6247254;28;20188;-73
2021/08/13 04:28:50;;;;;;;7.97;4.40;;;15.90;99.90;;;;;;6248085;28;20195;-72
2021/08/13 04:31:53;;;;;;;4.77;4.30;;;15.90;99.90;;;;;;6246924;28;20555;-73
2021/08/13 04:34:56;;;;;;;4.87;4.40;;;16.00;99.90;;;;;;6247452;28;20772;-73
2021/08/13 04:38:02;;;;;;;5.10;4.43;;;16.00;99.90;;;;;;6247713;28;20219;-72
2021/08/13 04:41:04;;;;;;;6.07;4.40;;;16.00;99.90;;;;;;6246943;28;20616;-73
2021/08/13 04:44:06;;;;;;;5.17;4.33;;;16.00;99.90;;;;;;6247302;28;20196;-72
2021/08/13 04:47:09;;;;;;;5.87;4.30;;;16.00;99.90;;;;;;6248021;28;20191;-72
2021/08/13 04:50:11;;;;;;;6.57;4.50;;;16.00;99.90;;;;;;6246845;28;20192;-72
2021/08/13 04:53:18;;;;;;;4.60;4.20;;;16.10;99.90;;;;;;6246604;28;20208;-73
2021/08/13 04:56:21;;;;;;;5.37;4.57;;;16.10;99.90;;;;;;6246844;28;20307;-74
2021/08/13 04:59:24;;;;;;;5.40;4.20;;;16.10;99.90;;;;;;6248017;28;20198;-72
2021/08/13 05:02:36;;;;;;;9.07;5.00;;;16.10;99.90;;;;;;6261861;28;20258;-72
2021/08/13 05:05:39;;;;;;;4.83;4.40;;;16.10;99.90;;;;;;6246538;28;20196;-72
2021/08/13 05:08:42;;;;;;;5.43;4.93;;;16.10;99.90;;;;;;6246133;28;20192;-74
2021/08/13 05:11:47;;;;;;;4.63;4.03;;;16.10;99.90;;;;;;6246404;28;20204;-73
2021/08/13 05:14:50;;;;;;;6.33;4.40;;;16.20;99.90;;;;;;6246150;28;20215;-72
2021/08/13 05:17:52;;;;;;;6.07;4.93;;;16.20;99.90;;;;;;6262396;28;20253;-72
2021/08/13 05:20:58;;;;;;;5.07;4.57;;;16.30;99.90;;;;;;6246382;28;20192;-73
2021/08/13 05:24:01;;;;;;;5.83;4.30;;;16.30;99.90;;;;;;6262493;28;20303;-72
2021/08/13 05:27:04;;;;;;;6.83;5.00;;;16.30;99.90;;;;;;6262652;28;20770;-72
2021/08/13 05:30:09;;;;;;;4.80;4.13;;;16.30;99.90;;;;;;6245604;28;20194;-72
2021/08/13 05:33:12;;;;;;;7.53;4.90;;;16.30;99.90;;;;;;6247843;28;20287;-73
2021/08/13 05:36:17;;;;;;;5.07;4.57;;;16.30;99.90;;;;;;6247291;28;20220;-73
2021/08/13 05:39:19;;;;;;;5.60;4.83;;;16.40;99.90;;;;;;6245462;28;20295;-72
2021/08/13 05:42:21;;;;;;;5.17;4.30;;;16.40;99.90;;;;;;6245614;28;20219;-72
2021/08/13 05:45:24;;;;;;;6.50;4.90;;;16.50;99.90;;;;;;6245254;28;20287;-72
2021/08/13 05:48:26;;;;;;;4.60;4.10;;;16.60;99.90;;;;;;6245257;28;20258;-73
2021/08/13 05:51:29;;;;;;;5.97;4.87;;;16.60;99.90;;;;;;6245830;28;20188;-72
2021/08/13 05:54:31;;;;;;;5.23;4.73;;;16.70;99.90;;;;;;6245669;28;20712;-72
2021/08/13 05:57:38;;;;;;;6.13;4.87;;;16.80;99.90;;;;;;6246049;28;20196;-72
2021/08/13 06:00:40;;;;;;;6.63;5.00;;;16.90;99.90;;;;;;6245058;28;20200;-72
2021/08/13 06:03:44;;;;;;;6.03;5.13;;;16.90;99.90;;;;;;6245671;28;20212;-72
2021/08/13 06:06:46;;;;;;;8.13;4.97;;;17.00;99.90;;;;;;6246211;28;20195;-73
2021/08/13 06:09:50;;;;;;;5.17;4.10;;;17.10;99.90;;;;;;6246544;28;20184;-72
2021/08/13 06:12:52;;;;;;;5.63;4.60;;;17.20;99.90;;;;;;6261725;28;20196;-72
2021/08/13 06:15:55;;;;;;;5.70;4.27;;;17.20;99.90;;;;;;6244503;28;20223;-73
2021/08/13 06:18:57;;;;;;;6.80;4.70;;;17.30;99.90;;;;;;6245616;28;20204;-72
2021/08/13 06:22:00;;;;;;;5.07;4.57;;;17.30;99.90;;;;;;6244674;28;20216;-73
2021/08/13 06:25:05;;;;;;;5.33;4.57;;;17.40;99.90;;;;;;6245554;28;20285;-73
2021/08/13 06:28:07;;;;;;;5.37;4.67;;;17.60;99.90;;;;;;6261278;28;20207;-74
2021/08/13 06:31:09;;;;;;;5.10;4.60;;;17.60;99.90;;;;;;6261028;28;20191;-72
2021/08/13 06:34:12;;;;;;;6.53;5.10;;;17.70;99.90;;;;;;6244838;28;20210;-73
2021/08/13 06:37:14;;;;;;;4.93;4.53;;;17.80;99.90;;;;;;6260732;28;20207;-72
2021/08/13 06:40:18;;;;;;;5.93;5.33;;;17.90;99.90;;;;;;6245780;28;20279;-72
2021/08/13 06:43:21;;;;;;;7.37;5.20;;;18.00;99.90;;;;;;6244274;28;20212;-73
2021/08/13 06:46:31;;;;;;;6.87;5.33;;;18.10;99.90;;;;;;6244138;28;20200;-73
2021/08/13 06:49:33;;;;;;;6.07;5.47;;;18.20;99.90;;;;;;6244144;28;20206;-72
2021/08/13 06:52:38;;;;;;;5.30;4.80;;;18.30;99.90;;;;;;6260406;28;20200;-72
2021/08/13 06:55:41;;;;;;;6.80;5.40;;;18.50;99.90;;;;;;6244215;28;20204;-73
2021/08/13 06:58:43;;;;;;;5.57;5.07;;;18.70;99.90;;;;;;6244760;28;20672;-73
2021/08/13 07:01:46;;;;;;;6.73;4.73;;;18.90;99.90;;;;;;6260438;28;20203;-73
2021/08/13 07:04:48;;;;;;;6.27;4.63;;;19.10;99.90;;;;;;6244109;28;20196;-73
2021/08/13 07:07:51;;;;;;;4.93;4.43;;;19.40;99.90;;;;;;6243173;28;20207;-73
2021/08/13 07:10:54;;;;;;;5.00;4.43;;;19.70;99.90;;;;;;6260314;28;20611;-73
2021/08/13 07:13:57;;;;;;;5.83;4.43;;;20.10;99.90;;;;;;6243378;28;20551;-73
2021/08/13 07:17:00;;;;;;;5.80;4.50;;;20.40;99.90;;;;;;6260153;28;20589;-73
2021/08/13 07:20:09;;;;;;;7.23;4.70;;;20.70;99.90;;;;;;6220372;28;20346;-73
2021/08/13 07:23:11;;;;;;;4.90;4.40;;;21.10;99.90;;;;;;6240867;28;20211;-72
2021/08/13 07:26:15;;;;;;;4.73;4.23;;;21.40;99.90;;;;;;6243300;28;20198;-73
2021/08/13 07:29:18;;;;;;;4.83;4.33;;;21.80;99.90;;;;;;6243091;28;20200;-73
2021/08/13 07:32:21;;;;;;;6.60;4.50;;;22.20;99.90;;;;;;6251719;28;20298;-73
2021/08/13 07:35:24;;;;;;;5.30;4.80;;;22.50;99.90;;;;;;6259562;28;20278;-74
2021/08/13 07:38:29;;;;;;;5.73;4.40;;;22.80;99.90;;;;;;6259431;28;20192;-73
2021/08/13 07:41:31;;;;;;;4.60;4.20;;;23.10;99.90;;;;;;6242752;28;20242;-73
2021/08/13 07:44:34;;;;;;;5.30;4.40;;;23.50;99.90;;;;;;6259016;28;20306;-73
2021/08/13 07:47:46;;;;;;;5.03;3.77;;;23.90;99.90;;;;;;6243302;28;20200;-73
2021/08/13 07:50:49;;;;;;;4.73;4.20;;;24.20;99.90;;;;;;6243114;28;20742;-72
2021/08/13 07:53:53;;;;;;;7.70;4.87;;;24.50;99.90;;;;;;6243661;28;20561;-73
2021/08/13 07:56:57;;;;;;;9.37;4.63;;;24.90;99.90;;;;;;6259782;28;20206;-73
2021/08/13 08:00:00;;;;;;;5.47;4.13;;;25.10;99.90;;;;;;6242927;28;20291;-73
2021/08/13 08:03:07;;;;;;;5.83;4.27;;;25.40;99.90;;;;;;6259846;28;20208;-74
2021/08/13 08:06:09;;;;;;;4.43;3.90;;;25.70;99.90;;;;;;6244920;28;20196;-73
2021/08/13 08:09:12;;;;;;;5.33;4.60;;;26.00;99.90;;;;;;6243412;28;20289;-73
2021/08/13 08:12:14;;;;;;;9.77;5.15;;;26.20;99.40;;;;;;6244887;28;20546;-73
2021/08/13 08:15:17;;;;;;;6.47;4.82;;;26.40;97.90;;;;;;6242853;28;20192;-72
2021/08/13 08:18:20;;;;;;;7.25;5.53;;;26.40;97.60;;;;;;6243990;28;20215;-72
2021/08/13 08:21:22;;;;;;;6.30;5.25;;;26.60;96.80;;;;;;6243153;28;20200;-73
2021/08/13 08:24:25;;;;;;;6.88;4.20;;;26.70;96.30;;;;;;6243356;28;20284;-74
2021/08/13 08:27:27;;;;;;;5.00;4.55;;;27.00;96.60;;;;;;6244185;28;20195;-72
2021/08/13 08:30:30;;;;;;;4.68;4.22;;;27.30;96.40;;;;;;6243259;28;20196;-73
2021/08/13 08:33:32;;;;;;;5.53;4.55;;;27.50;96.10;;;;;;6244148;28;20200;-73
2021/08/13 08:36:34;;;;;;;5.38;4.68;;;27.70;95.20;;;;;;6241166;28;20298;-73
2021/08/13 08:39:38;;;;;;;5.28;4.60;;;27.90;95.40;;;;;;6246889;28;20192;-73
2021/08/13 08:42:45;;;;;;;6.40;5.03;;;28.10;94.60;;;;;;6263049;28;20219;-72
2021/08/13 08:45:48;;;;;;;7.00;4.32;;;28.30;93.40;;;;;;6248770;28;20196;-74
2021/08/13 08:48:52;;;;;;;6.70;4.97;;;28.60;93.40;;;;;;6248997;28;20319;-73
2021/08/13 08:51:56;;;;;;;8.25;6.03;;;28.70;92.70;;;;;;6236276;28;20629;-72
2021/08/13 08:54:59;;;;;;;7.65;4.95;;;28.50;91.40;;;;;;6234662;28;20561;-73
2021/08/13 08:58:02;;;;;;;4.60;4.20;;;28.50;92.20;;;;;;6248505;28;20310;-74
2021/08/13 09:01:04;;;;;;;6.80;5.32;;;28.80;93.10;;;;;;6248822;28;20872;-74
2021/08/13 09:04:07;;;;;;;6.63;4.70;;;29.10;90.90;;;;;;6248172;28;20215;-73
2021/08/13 09:07:09;;;;;;;5.72;4.57;;;29.20;90.90;;;;;;6248139;28;20195;-74
2021/08/13 09:10:12;;;;;;;5.88;4.93;;;29.60;91.20;;;;;;6247089;28;20265;-73
2021/08/13 09:13:23;;;;;;;7.45;5.57;;;29.90;91.10;;;;;;6247605;28;20207;-73
2021/08/13 09:16:25;;;;;;;6.95;4.80;;;30.10;86.40;;;;;;6247992;28;20445;-74
2021/08/13 09:19:57;;;;;;;6.65;4.80;;;30.10;87.90;;;;;;6247302;28;20211;-73
2021/08/13 09:23:00;;;;;;;5.10;4.45;;;30.40;88.10;;;;;;6244557;28;20712;-74
2021/08/13 09:26:22;;;;;;;5.00;4.50;;;30.70;88.90;;;;;;6244712;28;20207;-74
2021/08/13 09:30:17;;;;;;;5.07;4.50;;;31.10;87.80;;;;;;6246594;28;20242;-71
2021/08/13 09:33:26;;;;;;;6.05;5.20;;;31.40;86.80;;;;;;6237243;28;20339;-74
2021/08/13 09:36:32;;;;;;;7.05;5.47;;;31.80;83.30;;;;;;6243675;28;20216;-74
2021/08/13 09:39:35;;;;;;;6.78;5.72;;;31.80;78.20;;;;;;6244812;28;20204;-74
2021/08/13 09:42:39;;;;;;;6.10;5.30;;;31.90;76.20;;;;;;6244578;28;20219;-74
2021/08/13 09:45:42;;;;;;;7.32;4.60;;;32.00;76.70;;;;;;6244051;28;20554;-74
2021/08/13 09:48:45;;;;;;;6.10;5.50;;;32.10;78.00;;;;;;6267423;28;20199;-74
2021/08/13 09:51:47;;;;;;;5.63;5.13;;;32.40;77.40;;;;;;6227406;28;20196;-73
2021/08/13 09:55:07;;;;;;;8.80;5.35;;;32.50;74.60;;;;;;6243962;28;20362;-73
2021/08/13 09:58:11;;;;;;;7.32;6.18;;;32.70;73.80;;;;;;6227252;28;20763;-74
2021/08/13 10:01:13;;;;;;;5.82;5.22;;;32.70;68.90;;;;;;6245296;28;20211;-74
2021/08/13 10:04:18;;;;;;;6.60;5.45;;;32.60;69.20;;;;;;6245070;28;20694;-74
2021/08/13 10:07:21;;;;;;;7.68;6.05;;;32.50;69.70;;;;;;6245035;28;20330;-74
2021/08/13 10:10:29;;;;;;;7.22;5.40;;;32.50;68.10;;;;;;6245288;28;20274;-74
2021/08/13 10:13:42;;;;;;;6.60;5.22;;;32.70;66.10;;;;;;6245919;28;20198;-73
2021/08/13 10:16:52;;;;;;;6.70;5.53;;;33.00;65.00;;;;;;6244519;28;20321;-73
2021/08/13 10:19:54;;;;;;;5.68;5.18;;;32.90;64.70;;;;;;6260921;28;20204;-74
2021/08/13 10:22:57;;;;;;;4.72;4.32;;;32.80;64.60;;;;;;6244910;28;20651;-73
2021/08/13 10:26:00;;;;;;;5.93;5.28;;;33.10;67.30;;;;;;6260866;28;20573;-73
2021/08/13 10:29:09;;;;;;;5.88;5.38;;;33.40;68.80;;;;;;6245982;28;20188;-73
2021/08/13 10:32:16;;;;;;;6.95;5.47;;;33.70;64.70;;;;;;6244792;28;20192;-74
2021/08/13 10:35:19;;;;;;;5.82;4.95;;;34.20;64.80;;;;;;6260156;28;20220;-74
2021/08/13 10:38:22;;;;;;;5.55;5.05;;;34.50;61.10;;;;;;6243997;28;20330;-74
2021/08/13 10:41:28;;;;;;;7.70;5.47;;;34.40;61.50;;;;;;6244199;28;20286;-74
2021/08/13 10:44:43;;;;;;;5.38;4.93;;;34.30;64.60;;;;;;6260594;28;20295;-72
2021/08/13 10:48:02;;;;;;;6.32;5.20;;;34.10;62.50;;;;;;6260486;28;20193;-73
2021/08/13 10:51:07;;;;;;;5.55;5.00;;;33.70;61.40;;;;;;6260323;28;20184;-73
2021/08/13 10:54:19;;;;;;;5.88;4.82;;;33.40;63.60;;;;;;6244051;28;20603;-73
2021/08/13 10:57:48;;;;;;;6.53;5.05;;;33.30;65.60;;;;;;6245411;28;20260;-73
2021/08/13 11:00:59;;;;;;;5.97;4.95;;;33.30;67.10;;;;;;6240391;28;20536;-73
2021/08/13 11:04:04;;;;;;;5.53;5.03;;;33.20;64.50;;;;;;6260118;28;20224;-73
2021/08/13 11:07:13;;;;;;;7.25;4.60;;;33.10;67.00;;;;;;6244030;28;20220;-73
2021/08/13 11:10:47;;;;;;;5.25;4.75;;;33.00;67.60;;;;;;6243844;28;20207;-73
2021/08/13 11:13:50;;;;;;;5.40;4.88;;;33.00;66.60;;;;;;6243988;28;20555;-73
2021/08/13 11:16:52;;;;;;;5.68;5.13;;;32.80;67.90;;;;;;6243591;28;20382;-73
2021/08/13 11:19:57;;;;;;;5.28;4.88;;;32.80;68.00;;;;;;6227269;28;20207;-72
2021/08/13 11:23:04;;;;;;;7.65;5.43;;;32.70;67.90;;;;;;6243829;28;20220;-73
2021/08/13 11:26:08;;;;;;;5.45;4.80;;;32.80;67.40;;;;;;6243444;28;20207;-73
2021/08/13 11:29:29;;;;;;;5.22;4.72;;;32.90;66.70;;;;;;6244970;28;20572;-73
2021/08/13 11:32:37;;;;;;;5.43;4.93;;;33.40;66.20;;;;;;6222395;28;20713;-73
2021/08/13 11:35:41;;;;;;;5.63;4.50;;;33.60;64.70;;;;;;6243504;28;20680;-73
2021/08/13 11:38:44;;;;;;;5.28;4.88;;;33.80;64.20;;;;;;6243454;28;20679;-73
2021/08/13 11:41:49;;;;;;;5.63;5.00;;;34.20;63.30;;;;;;6243138;28;20649;-73
2021/08/13 11:44:52;;;;;;;5.13;4.72;;;34.40;62.60;;;;;;6243443;28;20227;-73
2021/08/13 11:47:54;;;;;;;7.70;5.30;;;34.40;58.60;;;;;;6259513;28;20551;-73
2021/08/13 11:50:57;;;;;;;6.20;5.03;;;34.00;58.60;;;;;;6243220;28;20516;-73
2021/08/13 11:53:59;;;;;;;5.10;4.60;;;33.80;60.20;;;;;;6260078;28;20200;-73
2021/08/13 11:57:16;;;;;;;6.20;5.45;;;34.00;60.70;;;;;;6242836;28;20281;-73
2021/08/13 12:00:21;;;;;;;5.53;4.90;;;33.70;55.40;;;;;;6243408;28;20193;-73
2021/08/13 12:03:24;;;;;;;7.03;5.50;;;33.70;57.20;;;;;;6259143;28;20293;-73
2021/08/13 12:06:26;;;;;;;5.85;5.35;;;33.50;56.10;;;;;;6260465;28;20949;-73
2021/08/13 12:09:35;;;;;;;5.13;4.63;;;33.40;56.70;;;;;;6242873;28;20664;-73
2021/08/13 12:12:41;;;;;;;5.88;4.88;;;33.40;57.50;;;;;;6262762;28;20660;-73
2021/08/13 12:15:44;;;;;;;5.95;5.35;;;33.40;59.00;;;;;;6248558;28;20279;-73
2021/08/13 12:18:51;;;;;;;4.97;4.45;;;33.60;59.60;;;;;;6247107;28;20245;-74
2021/08/13 12:21:59;;;;;;;10.27;5.78;;;33.70;58.90;;;;;;6247615;28;20195;-73
2021/08/13 12:25:05;;;;;;;6.30;5.35;;;34.00;57.60;;;;;;6237841;28;20220;-73
2021/08/13 12:28:09;;;;;;;5.90;5.38;;;34.20;55.90;;;;;;6245230;28;20200;-74
2021/08/13 12:31:12;;;;;;;5.90;5.40;;;34.70;54.40;;;;;;6247030;28;20563;-73
2021/08/13 12:34:24;;;;;;;5.45;4.97;;;34.90;54.60;;;;;;6247187;28;20693;-74
2021/08/13 12:37:28;;;;;;;9.07;6.03;;;35.10;53.00;;;;;;6264999;28;20211;-73
2021/08/13 12:40:39;;;;;;;6.40;5.80;;;35.20;54.00;;;;;;6247702;28;20211;-73
2021/08/13 12:43:42;;;;;;;5.75;5.15;;;35.30;55.60;;;;;;6248084;28;20216;-74
2021/08/13 12:46:46;;;;;;;6.45;5.82;;;35.10;54.50;;;;;;6246963;28;20196;-73
2021/08/13 12:49:48;;;;;;;5.90;5.32;;;35.00;53.50;;;;;;6246931;28;20211;-73
2021/08/13 12:53:10;;;;;;;5.80;5.25;;;35.20;54.00;;;;;;6247069;28;20202;-74
2021/08/13 12:56:22;;;;;;;5.80;5.20;;;35.50;55.60;;;;;;6247955;28;20277;-74
2021/08/13 12:59:34;;;;;;;5.60;5.10;;;35.80;55.30;;;;;;6246871;28;20188;-73
2021/08/13 13:02:38;;;;;;;6.97;5.97;;;36.10;55.60;;;;;;6247721;28;20210;-74
2021/08/13 13:06:01;;;;;;;7.03;5.43;;;36.30;54.50;;;;;;6246573;28;20675;-73
2021/08/13 13:09:04;;;;;;;6.65;6.05;;;36.40;52.60;;;;;;6246412;28;20703;-73
2021/08/13 13:12:33;;;;;;;6.40;5.80;;;35.90;53.20;;;;;;6263162;28;20576;-74
2021/08/13 13:15:35;;;;;;;5.82;5.25;;;35.90;53.20;;;;;;6245380;28;20584;-74
2021/08/13 13:18:41;;;;;;;6.38;5.78;;;36.20;54.40;;;;;;6237848;28;20621;-74
2021/08/13 13:21:44;;;;;;;5.85;5.43;;;36.70;53.10;;;;;;6243091;28;20204;-74
2021/08/13 13:25:16;;;;;;;6.85;6.05;;;37.30;52.00;;;;;;6244794;28;20223;-75
2021/08/13 13:28:51;;;;;;;5.63;5.13;;;37.80;50.20;;;;;;6234691;28;20212;-75
2021/08/13 13:32:16;;;;;;;6.97;6.28;;;38.40;50.30;;;;;;6245984;28;20192;-71
2021/08/13 13:36:02;;;;;;;7.38;6.05;;;38.50;48.60;;;;;;6221315;28;20278;-74
2021/08/13 13:39:09;;;;;;;5.50;5.00;;;38.50;48.60;;;;;;6243537;28;20197;-74
2021/08/13 13:42:12;;;;;;;5.43;4.93;;;38.50;48.20;;;;;;6245665;28;20192;-74
2021/08/13 13:45:19;;;;;;;5.80;5.30;;;38.90;47.70;;;;;;6246550;28;20239;-75
2021/08/13 13:48:24;;;;;;;13.23;8.80;;;39.30;46.80;;;;;;6245083;28;20220;-74
2021/08/13 13:51:26;;;;;;;9.27;6.47;;;39.50;48.50;;;;;;6245314;28;20286;-74
2021/08/13 13:54:29;;;;;;;6.13;5.38;;;39.70;46.70;;;;;;6244852;28;20541;-73
2021/08/13 13:57:34;;;;;;;6.00;5.50;;;39.50;46.80;;;;;;6244838;28;20334;-74
2021/08/13 14:00:38;;;;;;;9.63;5.78;;;39.30;47.10;;;;;;6261331;28;20191;-73
2021/08/13 14:03:41;;;;;;;7.57;5.32;;;38.90;48.10;;;;;;6246306;28;20295;-74
2021/08/13 14:06:44;;;;;;;11.82;5.60;;;38.40;49.00;;;;;;6245138;28;20342;-74
2021/08/13 14:09:46;;;;;;;6.63;5.28;;;38.50;48.60;;;;;;6244556;28;20283;-71
2021/08/13 14:12:50;;;;;;;7.40;5.63;;;38.90;49.30;;;;;;6245255;28;20599;-72
2021/08/13 14:15:53;;;;;;;6.55;5.10;;;39.50;47.70;;;;;;6244140;28;20254;-73
2021/08/13 14:18:56;;;;;;;6.80;5.35;;;39.60;44.70;;;;;;6244745;28;20200;-72
2021/08/13 14:21:59;;;;;;;10.32;5.32;;;38.90;47.10;;;;;;6244841;28;20699;-72
2021/08/13 14:25:07;;;;;;;8.00;5.38;;;37.80;48.70;;;;;;6244084;28;20709;-73
2021/08/13 14:28:10;;;;;;;10.80;6.00;;;36.80;51.40;;;;;;6244408;28;20180;-71
2021/08/13 14:31:12;;;;;;;8.60;6.55;;;35.90;52.00;;;;;;6260858;28;20441;-71
2021/08/13 14:34:16;;;;;;;7.55;6.07;;;35.60;52.90;;;;;;6260539;28;20331;-72
2021/08/13 14:37:18;;;;;;;7.45;5.32;;;35.50;54.20;;;;;;6243217;28;20204;-72
2021/08/13 14:40:21;;;;;;;5.95;5.32;;;35.20;55.70;;;;;;6244132;28;20350;-71
2021/08/13 14:43:24;;;;;;;6.43;5.65;;;35.50;55.60;;;;;;6243795;28;20250;-72
2021/08/13 14:46:26;;;;;;;6.43;5.82;;;35.60;52.90;;;;;;6244050;28;20560;-72
2021/08/13 14:49:29;;;;;;;7.57;6.07;;;36.50;52.50;;;;;;6243944;28;20210;-73
2021/08/13 14:52:33;;;;;;;7.60;5.80;;;37.60;47.90;;;;;;6243788;28;20856;-72
2021/08/13 14:55:37;;;;;;;6.28;5.63;;;38.70;47.00;;;;;;6260601;28;20199;-72
2021/08/13 14:58:40;;;;;;;6.63;5.30;;;39.50;45.00;;;;;;6243614;28;20207;-72
2021/08/13 15:01:43;;;;;;;7.20;6.03;;;40.00;45.70;;;;;;6243408;28;20205;-71
2021/08/13 15:04:46;;;;;;;9.57;5.35;;;40.30;44.60;;;;;;6243547;28;20219;-72
2021/08/13 15:07:49;;;;;;;8.13;5.55;;;40.60;43.10;;;;;;6259960;28;20572;-72
2021/08/13 15:10:53;;;;;;;7.03;5.70;;;40.60;42.90;;;;;;6243356;28;20630;-72
2021/08/13 15:13:55;;;;;;;6.80;5.50;;;40.60;43.10;;;;;;6243556;28;20205;-72
2021/08/13 15:16:58;;;;;;;6.45;5.30;;;40.70;42.60;;;;;;6259496;28;20310;-72
2021/08/13 15:20:02;;;;;;;6.90;5.43;;;40.90;42.40;;;;;;6243235;28;20257;-72
2021/08/13 15:23:05;;;;;;;8.20;4.93;;;40.90;41.90;;;;;;6243283;28;20199;-71
2021/08/13 15:26:10;;;;;;;7.35;5.82;;;40.90;42.40;;;;;;6244966;28;20196;-69
2021/08/13 15:29:13;;;;;;;5.75;5.25;;;40.70;42.30;;;;;;6244495;28;20188;-72
2021/08/13 15:32:15;;;;;;;8.95;5.53;;;40.60;44.50;;;;;;6244124;28;20192;-72
2021/08/13 15:35:18;;;;;;;6.25;5.60;;;40.70;42.80;;;;;;6259769;28;20222;-72
2021/08/13 15:38:25;;;;;;;7.43;5.55;;;40.70;43.00;;;;;;6243255;28;20199;-72
2021/08/13 15:41:28;;;;;;;6.60;5.13;;;40.60;43.50;;;;;;6244450;28;20188;-72
2021/08/13 15:44:30;;;;;;;6.43;5.63;;;40.60;43.50;;;;;;6243193;28;20224;-72
2021/08/13 15:47:32;;;;;;;6.78;4.72;;;40.50;42.60;;;;;;6248665;28;20283;-73
2021/08/13 15:50:35;;;;;;;5.80;4.88;;;40.20;43.50;;;;;;6249761;28;20234;-72
2021/08/13 15:53:38;;;;;;;7.07;5.50;;;39.80;44.50;;;;;;6249311;28;20192;-72
2021/08/13 15:56:41;;;;;;;8.38;5.70;;;39.40;46.60;;;;;;6250418;28;20192;-71
2021/08/13 15:59:43;;;;;;;7.97;5.28;;;39.10;46.90;;;;;;6249250;28;20187;-70
2021/08/13 16:02:47;;;;;;;6.78;5.05;;;38.40;48.30;;;;;;6248151;28;20245;-71
2021/08/13 16:05:49;;;;;;;5.18;4.78;;;37.00;48.70;;;;;;6248582;28;20645;-71